Time;durP1;ratioP1;P1;durP2;ratioP2;P2;SDS_P1;SDS_P2;PMS_P1;PMS_P2;Temp;Humidity;BMP_temperature;BMP_pressure;BME280_temperature;BME280_humidity;BME280_pressure;Samples;Min_cycle;Max_cycle;Signal;HPM_P1;HPM_P2
2022/08/12 00:42:59;;;;;;;9.25;8.32;;;18.90;99.90;;;;;;5118355;27;20051;-68
2022/08/12 00:46:29;;;;;;;8.43;7.55;;;18.90;99.90;;;;;;5107897;28;20043;-69
2022/08/12 00:48:15;;;;;;;9.00;8.13;;;18.90;99.90;;;;;;5121876;27;20051;-68
2022/08/12 00:50:46;;;;;;;8.60;7.85;;;18.90;99.90;;;;;;5129382;27;20513;-69
2022/08/12 00:53:15;;;;;;;9.43;8.10;;;18.90;99.90;;;;;;5129723;27;20091;-68
2022/08/12 00:55:46;;;;;;;8.75;8.02;;;18.90;99.90;;;;;;5123871;27;20039;-68
2022/08/12 00:58:21;;;;;;;8.95;7.55;;;18.80;99.90;;;;;;5122428;27;20039;-68
2022/08/12 01:00:50;;;;;;;8.85;7.95;;;18.80;99.90;;;;;;5116330;27;20512;-68
2022/08/12 01:03:19;;;;;;;8.32;7.63;;;18.80;99.90;;;;;;5114293;27;20443;-68
2022/08/12 01:11:29;;;;;;;8.90;8.00;;;18.80;99.90;;;;;;5110072;27;20119;-69
2022/08/12 01:13:59;;;;;;;8.63;7.93;;;18.80;99.90;;;;;;5105136;27;20502;-68
2022/08/12 01:16:27;;;;;;;8.80;8.00;;;18.80;99.90;;;;;;5117573;27;20360;-68
2022/08/12 01:18:57;;;;;;;8.10;7.40;;;18.80;99.90;;;;;;5105108;27;20116;-69
2022/08/12 01:21:50;;;;;;;8.82;7.70;;;18.70;99.90;;;;;;5111298;27;20039;-69
2022/08/12 01:24:45;;;;;;;11.43;7.93;;;18.70;99.90;;;;;;5113921;27;20028;-68
2022/08/12 01:27:14;;;;;;;8.90;8.00;;;18.70;99.90;;;;;;5106182;27;20084;-68
2022/08/12 01:29:43;;;;;;;8.48;7.68;;;18.60;99.90;;;;;;5115593;27;20585;-69
2022/08/12 01:32:16;;;;;;;10.65;7.70;;;18.60;99.90;;;;;;5093670;27;20106;-69
2022/08/12 01:35:05;;;;;;;9.23;7.57;;;18.60;99.90;;;;;;5102016;27;20047;-69
2022/08/12 01:37:44;;;;;;;8.48;7.75;;;18.60;99.90;;;;;;5096863;27;20051;-69
2022/08/12 01:40:15;;;;;;;10.30;8.05;;;18.60;99.90;;;;;;5099861;27;20046;-69
2022/08/12 01:43:08;;;;;;;8.38;7.63;;;18.60;99.90;;;;;;5101269;27;20047;-69
2022/08/12 01:46:06;;;;;;;8.60;7.90;;;18.60;99.90;;;;;;5118468;27;20522;-69
2022/08/12 01:49:01;;;;;;;8.43;7.72;;;18.60;99.90;;;;;;5088188;27;20124;-69
2022/08/12 01:51:42;;;;;;;8.50;7.60;;;18.50;99.90;;;;;;5107957;28;20047;-69
2022/08/12 01:54:37;;;;;;;;;;;18.60;99.90;;;;;;5099468;28;20051;-68
2022/08/12 01:57:40;;;;;;;8.20;7.40;;;18.50;99.90;;;;;;5119896;27;19923;-68
2022/08/12 02:00:43;;;;;;;8.75;7.60;;;18.50;99.90;;;;;;5107804;28;20036;-70
2022/08/12 02:03:28;;;;;;;8.38;7.15;;;18.50;99.90;;;;;;5101514;28;20048;-69
2022/08/12 02:11:55;;;;;;;8.63;7.72;;;18.50;99.90;;;;;;5099408;28;20126;-68
2022/08/12 02:14:49;;;;;;;8.38;7.55;;;18.50;99.90;;;;;;5113923;27;20050;-68
2022/08/12 02:17:35;;;;;;;8.38;7.45;;;18.50;99.90;;;;;;5095657;28;20657;-68
2022/08/12 02:20:43;;;;;;;7.95;7.25;;;18.50;99.90;;;;;;5111257;28;20155;-68
2022/08/12 02:23:23;;;;;;;8.43;7.47;;;18.40;99.90;;;;;;5114363;28;20431;-68
2022/08/12 02:25:54;;;;;;;8.27;7.57;;;18.40;99.90;;;;;;5113866;27;20138;-68
2022/08/12 02:28:22;;;;;;;7.53;6.93;;;18.40;99.90;;;;;;5118797;28;20145;-69
2022/08/12 02:30:49;;;;;;;8.20;7.40;;;18.30;99.90;;;;;;5125371;27;20854;-69
2022/08/12 02:33:18;;;;;;;7.60;7.00;;;18.30;99.90;;;;;;5111008;28;20078;-69
2022/08/12 02:35:46;;;;;;;8.70;7.88;;;18.20;99.90;;;;;;5107286;28;20063;-69
2022/08/12 02:38:14;;;;;;;8.45;7.65;;;18.30;99.90;;;;;;5113501;28;20482;-69
2022/08/12 02:40:46;;;;;;;9.68;8.20;;;18.20;99.90;;;;;;5121704;28;20408;-70
2022/08/12 02:43:34;;;;;;;8.90;7.60;;;18.20;99.90;;;;;;5116183;28;20048;-68
2022/08/12 02:46:09;;;;;;;9.38;7.68;;;18.20;99.90;;;;;;5106639;28;20054;-68
2022/08/12 02:48:53;;;;;;;8.35;7.65;;;18.10;99.90;;;;;;5122974;28;20445;-69
2022/08/12 02:51:33;;;;;;;7.85;7.22;;;18.00;99.90;;;;;;5125606;28;20150;-68
2022/08/12 02:54:03;;;;;;;8.32;7.60;;;17.90;99.90;;;;;;5105807;27;20509;-68
2022/08/12 02:56:39;;;;;;;9.05;7.95;;;17.90;99.90;;;;;;5104417;27;20043;-68
2022/08/12 02:59:09;;;;;;;8.77;7.88;;;17.90;99.90;;;;;;5115204;27;20820;-68
2022/08/12 03:01:43;;;;;;;8.57;7.70;;;17.80;99.90;;;;;;5114230;27;20346;-69
2022/08/12 03:04:30;;;;;;;8.40;7.60;;;17.70;99.90;;;;;;5109414;27;20044;-69
2022/08/12 03:07:17;;;;;;;9.00;8.02;;;17.70;99.90;;;;;;5101636;28;20122;-69
2022/08/12 03:10:00;;;;;;;8.68;7.97;;;17.60;99.90;;;;;;5104204;27;20051;-69
2022/08/12 03:12:39;;;;;;;8.93;8.02;;;17.60;99.90;;;;;;5112397;27;20070;-69
2022/08/12 03:15:18;;;;;;;9.07;7.70;;;17.50;99.90;;;;;;5121464;27;20047;-69
2022/08/12 03:17:54;;;;;;;9.35;7.72;;;17.40;99.90;;;;;;5121010;27;20080;-68
2022/08/12 03:20:41;;;;;;;8.85;8.05;;;17.40;99.90;;;;;;5099989;27;20068;-68
2022/08/12 03:23:12;;;;;;;8.73;8.02;;;17.40;99.90;;;;;;5109522;27;20115;-68
2022/08/12 03:26:00;;;;;;;10.32;8.48;;;17.30;99.90;;;;;;5114617;27;20497;-68
2022/08/12 03:28:50;;;;;;;9.13;8.30;;;17.20;99.90;;;;;;5118920;27;20047;-68
2022/08/12 03:31:20;;;;;;;9.13;8.38;;;17.20;99.90;;;;;;5123417;27;20092;-68
2022/08/12 03:33:49;;;;;;;9.10;8.30;;;17.20;99.90;;;;;;5108099;27;20443;-68
2022/08/12 03:36:33;;;;;;;9.32;8.00;;;17.20;99.90;;;;;;5109139;28;20047;-68
2022/08/12 03:42:06;;;;;;;8.70;7.90;;;17.10;99.90;;;;;;5101305;27;20040;-68
2022/08/12 04:01:26;;;;;;;8.38;7.57;;;16.90;99.90;;;;;;5106887;27;20066;-68
2022/08/12 04:03:54;;;;;;;9.07;8.18;;;17.00;99.90;;;;;;5095753;27;20051;-68
2022/08/12 04:06:27;;;;;;;9.27;8.30;;;17.00;99.90;;;;;;5107033;27;20043;-68
2022/08/12 04:09:04;;;;;;;9.60;8.65;;;17.00;99.90;;;;;;5120605;27;20130;-68
2022/08/12 04:14:30;;;;;;;10.48;7.90;;;17.00;99.90;;;;;;5123899;27;20107;-68
2022/08/12 04:16:59;;;;;;;12.55;8.07;;;17.00;99.90;;;;;;5129228;27;20078;-69
2022/08/12 04:19:26;;;;;;;9.00;8.02;;;17.10;99.90;;;;;;5125183;27;20035;-68
2022/08/12 04:21:54;;;;;;;9.07;8.20;;;17.10;99.90;;;;;;5129069;27;20039;-69
2022/08/12 04:24:35;;;;;;;9.00;8.10;;;17.10;99.90;;;;;;5124159;27;20505;-68
2022/08/12 04:27:09;;;;;;;8.73;7.80;;;17.10;99.90;;;;;;5127571;27;20417;-68
2022/08/12 04:29:38;;;;;;;9.55;8.27;;;17.20;99.90;;;;;;5119272;27;20122;-68
2022/08/12 04:32:25;;;;;;;8.85;7.70;;;17.20;99.90;;;;;;5119798;27;20055;-69
2022/08/12 04:34:54;;;;;;;8.38;7.40;;;17.20;99.90;;;;;;5104236;27;20418;-68
2022/08/12 04:37:22;;;;;;;9.05;7.68;;;17.20;99.90;;;;;;5124057;27;20537;-68
2022/08/12 04:39:50;;;;;;;8.40;7.60;;;17.30;99.90;;;;;;5111250;27;20486;-68
2022/08/12 04:42:18;;;;;;;8.93;8.13;;;17.30;99.90;;;;;;5123456;27;20374;-69
2022/08/12 04:44:47;;;;;;;8.98;8.07;;;17.30;99.90;;;;;;5112089;27;20063;-69
2022/08/12 04:47:15;;;;;;;8.77;7.75;;;17.30;99.90;;;;;;5123257;27;20723;-68
2022/08/12 04:49:44;;;;;;;8.38;7.68;;;17.40;99.90;;;;;;5122489;27;20493;-68
2022/08/12 04:52:13;;;;;;;8.63;7.93;;;17.40;99.90;;;;;;5125713;27;20445;-68
2022/08/12 04:54:42;;;;;;;8.90;8.10;;;17.50;99.90;;;;;;5109194;27;20043;-68
2022/08/12 04:57:10;;;;;;;11.73;8.15;;;17.50;99.90;;;;;;5099650;27;20116;-68
2022/08/12 04:59:37;;;;;;;8.35;7.38;;;17.60;99.90;;;;;;5110000;27;20054;-68
2022/08/12 05:02:18;;;;;;;9.50;8.20;;;17.60;99.90;;;;;;5109024;27;20139;-68
2022/08/12 05:04:50;;;;;;;9.27;8.27;;;17.60;99.90;;;;;;5102562;27;20619;-68
2022/08/12 05:07:19;;;;;;;8.90;8.00;;;17.70;99.90;;;;;;5120369;27;20040;-69
2022/08/12 05:09:47;;;;;;;8.85;7.97;;;17.70;99.90;;;;;;5105544;27;20470;-68
2022/08/12 05:12:38;;;;;;;10.02;8.00;;;17.80;99.90;;;;;;5105365;27;20043;-67
2022/08/12 05:15:06;;;;;;;10.13;7.60;;;17.90;99.90;;;;;;5118682;27;20859;-68
2022/08/12 05:17:54;;;;;;;9.20;8.10;;;18.00;99.90;;;;;;5094838;27;20055;-68
2022/08/12 05:20:25;;;;;;;9.85;7.47;;;18.10;99.90;;;;;;5087464;27;20080;-68
2022/08/12 05:23:16;;;;;;;9.02;8.13;;;18.10;99.90;;;;;;5093106;27;20573;-68
2022/08/12 05:25:45;;;;;;;8.10;7.40;;;18.10;99.90;;;;;;5092423;27;20184;-68
2022/08/12 05:28:14;;;;;;;8.82;7.93;;;18.10;99.90;;;;;;5097455;27;20050;-68
2022/08/12 05:30:44;;;;;;;8.60;7.70;;;18.20;99.90;;;;;;5101167;27;20463;-68
2022/08/12 05:33:14;;;;;;;10.85;7.47;;;18.20;99.90;;;;;;5109231;27;20116;-68
2022/08/12 05:35:43;;;;;;;10.05;7.70;;;18.30;99.90;;;;;;5110295;27;20457;-69
2022/08/12 05:41:00;;;;;;;8.60;7.80;;;18.40;99.90;;;;;;5098511;27;20046;-69
2022/08/12 05:43:27;;;;;;;9.38;8.48;;;18.40;99.90;;;;;;5120768;27;20126;-68
2022/08/12 05:45:55;;;;;;;10.85;8.40;;;18.50;99.90;;;;;;5115459;27;20142;-68
2022/08/12 05:48:23;;;;;;;8.98;8.07;;;18.60;99.90;;;;;;5087374;28;20048;-68
2022/08/12 05:50:51;;;;;;;9.88;8.07;;;18.70;99.90;;;;;;5091024;28;20134;-68
2022/08/12 05:53:19;;;;;;;8.63;7.82;;;18.80;99.90;;;;;;5090353;28;20036;-68
2022/08/12 05:55:46;;;;;;;10.93;7.82;;;18.90;99.90;;;;;;5103298;28;20078;-68
2022/08/12 05:58:13;;;;;;;8.82;7.93;;;18.90;99.90;;;;;;5076989;28;20508;-68
2022/08/12 06:00:41;;;;;;;12.60;7.93;;;19.00;99.90;;;;;;5095800;27;20039;-68
2022/08/12 06:03:08;;;;;;;10.18;8.05;;;19.10;99.90;;;;;;5087075;28;20387;-68
2022/08/12 06:05:37;;;;;;;7.97;7.25;;;19.20;99.90;;;;;;5090429;28;20040;-68
2022/08/12 06:08:22;;;;;;;8.05;7.25;;;19.30;99.90;;;;;;5112794;28;20115;-68
2022/08/12 06:10:50;;;;;;;8.35;7.65;;;19.40;99.90;;;;;;5123342;27;20074;-68
2022/08/12 06:13:18;;;;;;;9.02;7.13;;;19.40;99.90;;;;;;5098563;28;20143;-68
2022/08/12 06:16:06;;;;;;;7.90;7.03;;;19.50;99.90;;;;;;5103732;28;20076;-69
2022/08/12 06:18:34;;;;;;;7.70;7.10;;;19.60;99.90;;;;;;5102110;28;20043;-68
2022/08/12 06:21:01;;;;;;;9.10;7.45;;;19.70;99.90;;;;;;5094331;27;20570;-68
2022/08/12 06:23:29;;;;;;;8.88;7.90;;;19.70;99.90;;;;;;5087296;28;20050;-68
2022/08/12 06:25:57;;;;;;;7.78;7.18;;;19.80;99.90;;;;;;5100900;28;20513;-66
2022/08/12 06:28:26;;;;;;;9.82;7.53;;;19.90;99.90;;;;;;5110865;27;20581;-65
2022/08/12 06:30:54;;;;;;;8.43;7.63;;;20.00;99.90;;;;;;5123852;27;20088;-66
2022/08/12 06:33:47;;;;;;;9.82;7.78;;;20.30;99.90;;;;;;5102417;27;20043;-66
2022/08/12 06:36:27;;;;;;;8.50;7.30;;;20.50;99.90;;;;;;5118138;27;20051;-65
2022/08/12 06:38:58;;;;;;;14.02;12.13;;;20.80;99.90;;;;;;5111909;28;20126;-66
2022/08/12 06:44:31;;;;;;;8.48;7.68;;;21.30;99.90;;;;;;5101574;28;20134;-65
2022/08/12 06:46:59;;;;;;;7.78;6.93;;;21.50;99.90;;;;;;5111366;27;20071;-65
2022/08/12 06:49:34;;;;;;;8.27;7.40;;;21.60;99.90;;;;;;5105749;27;20476;-65
2022/08/12 06:52:03;;;;;;;7.45;6.63;;;21.60;99.90;;;;;;5097676;27;20452;-65
2022/08/12 06:54:33;;;;;;;8.57;7.88;;;21.70;99.90;;;;;;5109164;27;20086;-64
2022/08/12 06:57:01;;;;;;;8.55;7.75;;;21.80;99.90;;;;;;5118185;27;20119;-66
2022/08/12 06:59:34;;;;;;;8.38;7.35;;;21.80;99.90;;;;;;5120998;27;20039;-67
2022/08/12 07:02:01;;;;;;;7.47;6.88;;;21.80;99.90;;;;;;5119421;27;20185;-65
2022/08/12 07:04:29;;;;;;;8.32;7.00;;;21.90;99.90;;;;;;5114515;27;20490;-67
2022/08/12 07:07:07;;;;;;;7.00;6.30;;;22.00;99.90;;;;;;5115492;27;20082;-66
2022/08/12 07:09:35;;;;;;;8.20;6.20;;;22.10;99.90;;;;;;5108915;27;20043;-66
2022/08/12 07:12:23;;;;;;;7.57;6.82;;;22.10;99.90;;;;;;5109053;27;20482;-65
2022/08/12 07:14:55;;;;;;;9.30;7.50;;;22.30;99.90;;;;;;5093006;27;20054;-67
2022/08/12 07:17:23;;;;;;;8.45;7.07;;;22.30;99.90;;;;;;5093908;27;20116;-65
2022/08/12 07:19:52;;;;;;;7.95;7.15;;;22.40;99.90;;;;;;5105043;27;20145;-67
2022/08/12 07:22:21;;;;;;;8.52;7.20;;;22.50;99.90;;;;;;5125882;27;20039;-67
2022/08/12 07:25:29;;;;;;;8.20;6.78;;;22.50;99.70;;;;;;5121454;27;20044;-68
2022/08/12 07:27:41;;;;;;;7.50;6.80;;;22.60;99.30;;;;;;5122595;27;20497;-65
2022/08/12 07:30:09;;;;;;;9.35;6.65;;;22.80;98.90;;;;;;5125161;27;20096;-64
2022/08/12 07:32:37;;;;;;;8.40;6.90;;;22.70;98.60;;;;;;5120370;27;20039;-65
2022/08/12 07:35:04;;;;;;;7.32;6.63;;;22.80;98.50;;;;;;5108603;28;20047;-66
2022/08/12 07:37:32;;;;;;;9.32;6.95;;;23.00;98.50;;;;;;5117693;27;20065;-66
2022/08/12 07:39:59;;;;;;;9.88;7.22;;;23.10;97.90;;;;;;5109602;27;20040;-65
2022/08/12 07:42:28;;;;;;;7.70;6.90;;;23.10;97.50;;;;;;5111868;27;20044;-66
2022/08/12 07:44:55;;;;;;;8.25;6.88;;;23.20;97.50;;;;;;5095885;27;20055;-65
2022/08/12 07:47:25;;;;;;;7.57;6.75;;;23.30;97.30;;;;;;5106632;27;20043;-65
2022/08/12 07:49:53;;;;;;;7.20;6.35;;;23.30;97.10;;;;;;5096253;27;20058;-66
2022/08/12 07:52:37;;;;;;;9.07;8.00;;;23.40;97.00;;;;;;5103153;27;20044;-67
2022/08/12 07:55:05;;;;;;;8.10;6.80;;;23.50;96.80;;;;;;5102632;28;20044;-67
2022/08/12 07:57:33;;;;;;;12.60;7.40;;;23.60;96.70;;;;;;5108330;27;20031;-66
2022/08/12 08:00:04;;;;;;;7.65;6.68;;;23.70;96.40;;;;;;5114147;27;20078;-67
2022/08/12 08:02:35;;;;;;;8.00;6.57;;;23.80;96.20;;;;;;5112422;27;20042;-66
2022/08/12 08:05:04;;;;;;;7.63;6.82;;;23.90;96.00;;;;;;5096395;28;20040;-66
2022/08/12 08:07:31;;;;;;;11.38;7.38;;;24.00;95.70;;;;;;5100755;27;20039;-66
2022/08/12 08:10:01;;;;;;;7.30;6.70;;;24.10;95.40;;;;;;5098921;27;20053;-66
2022/08/12 08:15:15;;;;;;;7.20;6.60;;;24.30;94.80;;;;;;5096153;27;20066;-67
2022/08/12 08:18:01;;;;;;;8.93;7.00;;;24.30;94.60;;;;;;5110937;27;20034;-68
2022/08/12 08:20:32;;;;;;;7.93;6.55;;;24.40;94.50;;;;;;5113254;27;20048;-66
2022/08/12 08:23:07;;;;;;;7.43;6.72;;;24.40;94.10;;;;;;5115729;27;20556;-68
2022/08/12 08:25:37;;;;;;;7.05;6.18;;;24.50;93.80;;;;;;5107885;27;20086;-67
2022/08/12 08:28:11;;;;;;;7.15;5.95;;;24.40;93.60;;;;;;5123777;27;20076;-67
2022/08/12 08:30:42;;;;;;;6.80;6.20;;;24.30;93.80;;;;;;5116226;27;20578;-65
2022/08/12 08:33:12;;;;;;;7.27;6.57;;;24.50;93.70;;;;;;5105464;27;20493;-67
2022/08/12 08:36:00;;;;;;;6.63;6.10;;;24.50;93.40;;;;;;5122156;27;20088;-65
2022/08/12 08:38:28;;;;;;;10.02;6.97;;;24.60;93.40;;;;;;5129919;27;20088;-67
2022/08/12 08:44:09;;;;;;;9.75;6.32;;;24.70;92.90;;;;;;5103741;27;20076;-67
2022/08/12 08:46:38;;;;;;;7.10;6.50;;;24.80;92.80;;;;;;5123929;27;20059;-68
2022/08/12 08:49:06;;;;;;;6.72;6.22;;;24.90;92.50;;;;;;5127139;27;20066;-66
2022/08/12 08:51:34;;;;;;;6.60;6.00;;;25.00;92.40;;;;;;5112980;27;20035;-67
2022/08/12 08:54:02;;;;;;;8.45;6.55;;;25.10;92.30;;;;;;5102889;27;20130;-68
2022/08/12 08:56:29;;;;;;;7.40;6.40;;;25.20;92.10;;;;;;5091385;27;20044;-67
2022/08/12 08:58:57;;;;;;;7.80;6.32;;;25.30;91.80;;;;;;5109991;27;20098;-67
2022/08/12 09:01:29;;;;;;;6.85;6.13;;;25.30;91.40;;;;;;5114444;27;20101;-66
2022/08/12 09:04:06;;;;;;;7.68;6.32;;;25.40;90.60;;;;;;5107008;27;20048;-66
2022/08/12 09:06:57;;;;;;;8.10;6.30;;;25.50;90.20;;;;;;5097646;27;20506;-67
2022/08/12 09:09:26;;;;;;;8.07;6.60;;;25.50;90.60;;;;;;5107196;27;20050;-65
2022/08/12 09:15:02;;;;;;;6.53;6.00;;;25.70;90.10;;;;;;5107443;27;20044;-67
2022/08/12 09:17:54;;;;;;;8.43;5.90;;;25.80;89.60;;;;;;5101355;27;20036;-68
2022/08/12 09:20:31;;;;;;;7.63;5.97;;;25.80;89.00;;;;;;5090292;27;20118;-67
2022/08/12 09:23:00;;;;;;;7.40;6.47;;;25.90;88.80;;;;;;5098084;27;20167;-67
2022/08/12 09:25:48;;;;;;;6.35;5.75;;;26.00;87.90;;;;;;5097497;27;20051;-67
2022/08/12 09:28:15;;;;;;;6.50;5.90;;;26.10;87.10;;;;;;5109534;27;20493;-67
2022/08/12 09:30:47;;;;;;;9.23;6.05;;;26.20;86.00;;;;;;5112814;27;20139;-67
2022/08/12 09:33:14;;;;;;;6.93;6.10;;;26.30;85.30;;;;;;5099346;28;20509;-66
2022/08/12 09:36:03;;;;;;;6.72;5.50;;;26.30;85.20;;;;;;5090002;28;20047;-65
2022/08/12 09:38:32;;;;;;;9.20;6.18;;;26.30;85.00;;;;;;5107129;27;20036;-66
2022/08/12 09:41:04;;;;;;;8.25;5.65;;;26.30;84.00;;;;;;5112760;27;20111;-67
2022/08/12 09:46:57;;;;;;;7.18;6.47;;;26.50;84.30;;;;;;5114602;27;20042;-67
2022/08/12 09:49:26;;;;;;;11.13;6.60;;;26.60;83.00;;;;;;5110023;27;20142;-67
2022/08/12 09:51:53;;;;;;;7.00;6.30;;;26.70;82.70;;;;;;5092480;27;20083;-67
2022/08/12 09:54:24;;;;;;;7.03;6.30;;;26.80;82.90;;;;;;5103215;28;20089;-68
2022/08/12 09:57:16;;;;;;;8.68;7.80;;;26.80;81.70;;;;;;5104171;28;20092;-68
2022/08/12 10:00:05;;;;;;;28.70;20.67;;;27.00;80.30;;;;;;5103031;28;20044;-68
2022/08/12 10:02:59;;;;;;;15.75;10.60;;;27.30;78.20;;;;;;5112211;27;20066;-67
2022/08/12 10:05:32;;;;;;;55.30;29.27;;;27.40;79.10;;;;;;5095171;28;20113;-68
2022/08/12 10:08:20;;;;;;;8.50;7.50;;;27.40;78.80;;;;;;5115921;28;20035;-69
2022/08/12 10:13:48;;;;;;;8.20;7.40;;;27.70;75.70;;;;;;5114136;28;20459;-69
2022/08/12 10:16:18;;;;;;;6.65;6.05;;;28.00;76.10;;;;;;5125346;27;20773;-63
2022/08/12 10:18:52;;;;;;;13.20;11.32;;;28.10;74.60;;;;;;5114393;28;20157;-64
2022/08/12 10:21:35;;;;;;;47.75;27.05;;;28.00;73.00;;;;;;5112852;27;20047;-64
2022/08/12 10:24:07;;;;;;;8.90;7.20;;;28.20;73.30;;;;;;5100937;28;20085;-64
2022/08/12 10:29:43;;;;;;;6.45;5.85;;;28.50;72.50;;;;;;5091278;28;20147;-63
2022/08/12 10:32:30;;;;;;;6.40;5.90;;;28.80;71.40;;;;;;5095665;28;20505;-64
2022/08/12 10:35:15;;;;;;;7.32;6.28;;;28.80;71.50;;;;;;5097350;28;20629;-64
2022/08/12 10:37:44;;;;;;;7.07;6.38;;;28.90;71.30;;;;;;5107291;28;20043;-63
2022/08/12 10:40:32;;;;;;;6.53;5.93;;;29.00;71.30;;;;;;5115359;27;20458;-64
2022/08/12 10:45:52;;;;;;;7.35;5.93;;;29.20;70.50;;;;;;5103247;28;19955;-65
2022/08/12 10:48:25;;;;;;;6.93;5.90;;;29.30;70.10;;;;;;5104031;28;20501;-63
2022/08/12 10:51:04;;;;;;;6.20;5.70;;;29.00;69.80;;;;;;5108135;28;20410;-63
2022/08/12 10:53:54;;;;;;;6.10;5.60;;;29.00;69.80;;;;;;5099515;28;20046;-64
2022/08/12 10:56:33;;;;;;;6.10;5.50;;;29.30;70.10;;;;;;5097926;27;20460;-64
2022/08/12 10:59:04;;;;;;;6.22;5.65;;;29.80;68.60;;;;;;5105581;28;20040;-64
2022/08/12 11:01:39;;;;;;;6.57;5.40;;;30.20;67.40;;;;;;5108287;28;20040;-62
2022/08/12 11:04:29;;;;;;;7.22;5.63;;;30.50;67.10;;;;;;5095002;28;20449;-62
2022/08/12 11:07:09;;;;;;;7.00;5.57;;;31.00;66.50;;;;;;5094997;28;20039;-63
2022/08/12 11:09:57;;;;;;;6.50;5.78;;;30.80;66.40;;;;;;5088031;28;20143;-63
2022/08/12 11:12:29;;;;;;;6.57;5.45;;;31.00;65.30;;;;;;5113205;28;20574;-63
2022/08/12 11:15:19;;;;;;;6.35;5.55;;;31.20;65.20;;;;;;5108564;27;20042;-63
2022/08/12 11:17:59;;;;;;;7.13;6.25;;;30.90;64.90;;;;;;5099906;27;20131;-63
2022/08/12 11:20:29;;;;;;;6.00;5.50;;;30.80;65.20;;;;;;5097372;27;20044;-64
2022/08/12 11:23:00;;;;;;;7.00;6.00;;;31.20;64.70;;;;;;5091338;27;20072;-63
2022/08/12 11:25:48;;;;;;;10.68;5.88;;;31.70;64.40;;;;;;5093725;27;20071;-63
2022/08/12 11:28:25;;;;;;;6.93;6.20;;;31.90;63.90;;;;;;5096641;27;20406;-63
2022/08/12 11:31:02;;;;;;;6.57;5.90;;;31.80;63.60;;;;;;5106753;27;20047;-63
2022/08/12 11:33:30;;;;;;;6.78;6.10;;;31.90;62.50;;;;;;5106064;27;20096;-63
2022/08/12 11:36:18;;;;;;;6.75;5.38;;;32.20;61.80;;;;;;5106196;27;20031;-62
2022/08/12 11:38:49;;;;;;;7.15;5.70;;;32.50;59.40;;;;;;5106448;27;20431;-63
2022/08/12 11:41:18;;;;;;;5.70;5.20;;;32.50;59.40;;;;;;5107894;27;20044;-63
2022/08/12 11:44:01;;;;;;;6.30;4.90;;;32.80;59.60;;;;;;5111535;27;20071;-63
2022/08/12 11:46:51;;;;;;;5.78;5.13;;;33.50;58.70;;;;;;5108174;27;20627;-63
2022/08/12 11:49:26;;;;;;;7.95;5.10;;;33.50;58.30;;;;;;5106359;27;20044;-63
2022/08/12 11:52:02;;;;;;;5.43;4.80;;;32.90;58.90;;;;;;5101685;27;20097;-63
2022/08/12 11:54:30;;;;;;;5.38;4.80;;;32.80;58.90;;;;;;5108243;27;20044;-63
2022/08/12 11:57:00;;;;;;;5.97;5.20;;;32.80;58.90;;;;;;5104860;27;20048;-63
2022/08/12 11:59:48;;;;;;;5.40;4.88;;;32.70;58.20;;;;;;5102993;27;20055;-63
2022/08/12 12:02:38;;;;;;;7.18;4.80;;;32.80;57.30;;;;;;5097886;27;20118;-63
2022/08/12 12:05:06;;;;;;;5.68;4.90;;;33.30;56.70;;;;;;5090382;28;20451;-62
2022/08/12 12:07:37;;;;;;;8.00;7.20;;;33.40;56.50;;;;;;5099202;27;20430;-65
2022/08/12 12:10:24;;;;;;;;;;;33.80;56.00;;;;;;5091951;27;20036;-63
2022/08/12 12:12:52;;;;;;;7.13;5.80;;;34.00;55.40;;;;;;5079185;27;19923;-63
2022/08/12 12:15:20;;;;;;;6.38;5.78;;;34.20;55.10;;;;;;5101938;27;20082;-63
2022/08/12 12:18:22;;;;;;;6.00;5.40;;;33.90;55.00;;;;;;5095691;28;20546;-63
2022/08/12 12:20:59;;;;;;;5.50;5.10;;;34.10;54.80;;;;;;5111483;27;20112;-63
2022/08/12 12:23:28;;;;;;;6.18;5.68;;;33.70;54.90;;;;;;5090907;27;20512;-63
2022/08/12 12:25:55;;;;;;;6.13;5.10;;;34.20;54.70;;;;;;5097427;27;20036;-63
2022/08/12 12:28:35;;;;;;;6.38;5.78;;;34.10;54.20;;;;;;5111133;27;20130;-64
2022/08/12 12:31:05;;;;;;;5.82;5.40;;;34.50;54.50;;;;;;5115803;27;20051;-64
2022/08/12 12:33:52;;;;;;;6.45;5.30;;;34.80;54.20;;;;;;5100103;27;20051;-63
2022/08/12 12:36:26;;;;;;;5.88;5.18;;;35.40;53.30;;;;;;5111138;27;20047;-63
2022/08/12 12:38:57;;;;;;;5.82;5.20;;;35.70;53.10;;;;;;5115043;27;20043;-63
2022/08/12 12:41:27;;;;;;;5.95;5.45;;;36.40;52.20;;;;;;5103081;27;20037;-63
2022/08/12 12:44:15;;;;;;;6.03;5.63;;;36.10;51.50;;;;;;5097487;27;20036;-63
2022/08/12 12:47:02;;;;;;;5.82;5.32;;;36.20;51.20;;;;;;5111156;27;20036;-64
2022/08/12 12:49:49;;;;;;;6.03;5.50;;;36.80;51.30;;;;;;5107784;27;20051;-64
2022/08/12 12:52:19;;;;;;;7.40;5.85;;;36.80;50.90;;;;;;5116610;27;20043;-64
2022/08/12 12:54:56;;;;;;;5.80;5.30;;;36.70;50.80;;;;;;5109443;27;20062;-64
2022/08/12 12:57:24;;;;;;;5.88;5.43;;;37.10;50.50;;;;;;5097230;27;20054;-63
2022/08/12 13:00:15;;;;;;;5.97;5.10;;;36.70;50.10;;;;;;5120878;27;20049;-65
2022/08/12 13:02:51;;;;;;;5.70;5.25;;;37.20;49.70;;;;;;5111832;27;20114;-64
2022/08/12 13:05:30;;;;;;;6.63;5.20;;;37.10;49.30;;;;;;5089338;28;20040;-63
2022/08/12 13:08:26;;;;;;;5.28;4.78;;;37.10;49.30;;;;;;5111764;27;20517;-63
2022/08/12 13:11:05;;;;;;;5.43;4.93;;;37.00;49.40;;;;;;5106213;27;20040;-63
2022/08/12 13:13:35;;;;;;;5.72;5.30;;;36.50;49.40;;;;;;5097087;27;20069;-64
2022/08/12 13:16:25;;;;;;;7.88;5.10;;;36.60;50.40;;;;;;5104751;27;20509;-64
2022/08/12 13:18:53;;;;;;;5.55;4.93;;;37.40;49.10;;;;;;5102192;27;20097;-64
2022/08/12 13:21:23;;;;;;;5.82;5.32;;;37.60;48.60;;;;;;5093812;27;20036;-64
2022/08/12 13:24:02;;;;;;;7.40;5.60;;;38.00;48.50;;;;;;5103983;28;20493;-64
2022/08/12 13:26:38;;;;;;;6.30;5.80;;;38.20;48.20;;;;;;5092762;28;20494;-62
2022/08/12 13:29:06;;;;;;;6.03;5.53;;;38.40;47.90;;;;;;5090340;27;20052;-61
2022/08/12 13:31:40;;;;;;;;;;;39.00;47.80;;;;;;5100537;27;20464;-62
2022/08/12 13:34:27;;;;;;;6.25;5.60;;;39.00;47.30;;;;;;5095938;27;19924;-65
2022/08/12 13:37:04;;;;;;;5.57;5.18;;;39.40;46.80;;;;;;5090538;28;20050;-62
2022/08/12 13:39:37;;;;;;;5.93;5.40;;;39.40;46.60;;;;;;5095785;28;20458;-62
2022/08/12 13:42:08;;;;;;;5.57;5.07;;;39.90;46.00;;;;;;5093420;28;20052;-62
2022/08/12 13:44:40;;;;;;;5.43;5.03;;;40.70;45.40;;;;;;5109600;27;20494;-62
2022/08/12 13:47:07;;;;;;;5.70;5.30;;;41.80;44.60;;;;;;5108883;27;20427;-62
2022/08/12 13:49:47;;;;;;;5.70;5.22;;;42.70;43.90;;;;;;5116140;27;20035;-63
2022/08/12 13:52:22;;;;;;;5.80;5.30;;;43.00;43.30;;;;;;5117031;27;20067;-63
2022/08/12 13:54:49;;;;;;;5.85;5.32;;;43.60;42.60;;;;;;5109132;27;20108;-64
2022/08/12 13:57:25;;;;;;;6.22;5.65;;;44.50;41.90;;;;;;5093206;27;20028;-64
2022/08/12 13:59:53;;;;;;;6.03;5.50;;;45.30;40.90;;;;;;5110510;28;20493;-64
2022/08/12 14:02:26;;;;;;;6.22;5.60;;;45.60;40.10;;;;;;5113746;28;20739;-64
2022/08/12 14:04:53;;;;;;;5.88;5.38;;;46.50;39.40;;;;;;5105873;28;20051;-64
2022/08/12 14:07:23;;;;;;;6.70;6.00;;;46.80;38.30;;;;;;5096374;28;20051;-64
2022/08/12 14:12:45;;;;;;;5.15;4.75;;;46.80;38.20;;;;;;5086766;28;20209;-64
2022/08/12 14:15:22;;;;;;;5.75;5.20;;;47.60;37.50;;;;;;5097896;28;20040;-64
2022/08/12 14:18:30;;;;;;;5.85;5.38;;;48.40;36.70;;;;;;5094309;28;20058;-64
2022/08/12 14:21:08;;;;;;;5.53;5.13;;;48.00;36.40;;;;;;5091979;28;20055;-64
2022/08/12 14:23:50;;;;;;;6.07;5.68;;;48.50;35.90;;;;;;5090417;28;20036;-64
2022/08/12 14:26:32;;;;;;;7.53;5.60;;;48.90;35.70;;;;;;5098295;28;20124;-62
2022/08/12 14:28:59;;;;;;;6.03;5.63;;;48.30;35.70;;;;;;5093654;28;20047;-63
2022/08/12 14:31:28;;;;;;;6.00;5.45;;;47.50;35.90;;;;;;5091667;28;20456;-63
2022/08/12 14:33:58;;;;;;;6.57;5.40;;;46.80;36.10;;;;;;5094274;28;20970;-64
2022/08/12 14:36:25;;;;;;;5.47;4.97;;;46.40;36.70;;;;;;5093689;28;20454;-64
2022/08/12 14:38:54;;;;;;;5.30;4.90;;;47.40;35.70;;;;;;5093216;28;20048;-64
2022/08/12 14:41:25;;;;;;;5.50;5.00;;;47.00;36.10;;;;;;5092703;28;20127;-63
2022/08/12 14:44:12;;;;;;;6.88;5.43;;;47.10;36.10;;;;;;5091983;28;20763;-63
2022/08/12 14:46:59;;;;;;;6.88;5.30;;;47.40;36.10;;;;;;5094120;28;20668;-64
2022/08/12 14:49:35;;;;;;;5.95;5.40;;;47.90;35.50;;;;;;5097758;28;20433;-64
2022/08/12 14:52:23;;;;;;;5.95;5.30;;;48.40;35.20;;;;;;5103491;27;20158;-64
2022/08/12 14:55:11;;;;;;;6.20;5.70;;;49.00;34.60;;;;;;5093479;27;20036;-63
2022/08/12 14:58:00;;;;;;;6.03;5.53;;;47.90;34.80;;;;;;5098678;27;20058;-63
2022/08/12 15:03:26;;;;;;;5.38;4.80;;;44.20;36.50;;;;;;5114835;27;20036;-64
2022/08/12 15:06:15;;;;;;;6.10;5.50;;;43.60;37.30;;;;;;5098128;27;20035;-64
2022/08/12 15:09:06;;;;;;;6.80;6.30;;;44.20;36.80;;;;;;5101894;27;20040;-64
2022/08/12 15:11:35;;;;;;;7.43;6.65;;;41.90;38.10;;;;;;5093849;27;20429;-66
2022/08/12 15:14:26;;;;;;;6.80;6.30;;;41.80;38.40;;;;;;5093721;27;20437;-63
2022/08/12 15:16:57;;;;;;;7.40;6.70;;;42.90;38.00;;;;;;5097931;27;20569;-64